Time;durP1;ratioP1;P1;durP2;ratioP2;P2;SDS_P1;SDS_P2;PMS_P1;PMS_P2;Temp;Humidity;BMP_temperature;BMP_pressure;BME280_temperature;BME280_humidity;BME280_pressure;Samples;Min_cycle;Max_cycle;Signal;HPM_P1;HPM_P2
2022/08/12 00:44:53;;;;;;;2.72;2.42;;;19.10;54.60;;;;;;5054769;28;20192;-60
2022/08/12 00:47:20;;;;;;;4.93;2.00;;;19.10;54.90;;;;;;5054128;28;20586;-60
2022/08/12 00:49:48;;;;;;;4.53;1.92;;;19.10;55.00;;;;;;5054550;28;20617;-60
2022/08/12 00:52:15;;;;;;;2.65;2.45;;;19.10;54.90;;;;;;5054654;28;20181;-60
2022/08/12 00:54:52;;;;;;;3.40;2.05;;;19.10;54.70;;;;;;5054574;28;20189;-60
2022/08/12 00:57:30;;;;;;;4.00;1.98;;;19.10;54.60;;;;;;5050869;28;20223;-60
2022/08/12 01:00:09;;;;;;;3.33;1.80;;;19.10;54.50;;;;;;5054040;28;20225;-60
2022/08/12 01:02:40;;;;;;;4.80;2.28;;;19.10;54.50;;;;;;5054814;28;20267;-60
2022/08/12 01:13:25;;;;;;;3.38;2.03;;;18.90;54.60;;;;;;5054127;28;20203;-60
2022/08/12 01:15:53;;;;;;;5.40;2.10;;;18.90;54.70;;;;;;5054044;28;20260;-60
2022/08/12 01:18:22;;;;;;;2.70;2.05;;;18.90;54.70;;;;;;5054235;28;20178;-60
2022/08/12 01:21:18;;;;;;;2.80;2.30;;;18.90;54.70;;;;;;5053578;28;20554;-60
2022/08/12 01:24:03;;;;;;;3.05;1.90;;;18.90;54.90;;;;;;5054034;28;20196;-60
2022/08/12 01:26:31;;;;;;;2.30;1.83;;;18.90;55.10;;;;;;5053814;28;20173;-60
2022/08/12 01:28:58;;;;;;;2.95;2.00;;;18.90;55.20;;;;;;5053978;28;20629;-60
2022/08/12 01:31:26;;;;;;;2.58;1.90;;;18.90;55.40;;;;;;5054196;28;20182;-60
2022/08/12 01:34:02;;;;;;;2.47;2.00;;;18.90;55.50;;;;;;5052627;28;20182;-60
2022/08/12 01:36:35;;;;;;;6.32;1.90;;;18.80;55.50;;;;;;5053588;28;20256;-60
2022/08/12 01:39:02;;;;;;;3.40;2.17;;;18.80;55.40;;;;;;5053403;28;20217;-60
2022/08/12 01:41:29;;;;;;;1.60;1.50;;;18.80;55.50;;;;;;5052155;28;20680;-60
2022/08/12 01:43:59;;;;;;;3.63;1.90;;;18.70;55.50;;;;;;5054099;28;20182;-60
2022/08/12 01:46:54;;;;;;;2.47;2.10;;;18.70;55.60;;;;;;5053181;28;20177;-60
2022/08/12 01:49:41;;;;;;;3.50;1.98;;;18.70;55.80;;;;;;5052938;28;20212;-61
2022/08/12 01:52:12;;;;;;;5.97;2.00;;;18.70;56.40;;;;;;5053719;28;20178;-60
2022/08/12 01:54:42;;;;;;;2.30;2.05;;;18.70;56.70;;;;;;5053621;28;20182;-60
2022/08/12 01:57:09;;;;;;;3.55;1.95;;;18.70;57.00;;;;;;5053326;28;20174;-60
2022/08/12 01:59:45;;;;;;;2.33;2.13;;;18.70;56.90;;;;;;5052948;28;20700;-60
2022/08/12 02:02:15;;;;;;;2.78;1.90;;;18.70;57.00;;;;;;5053319;28;20224;-60
2022/08/12 02:11:51;;;;;;;2.45;1.92;;;18.60;56.60;;;;;;5042903;28;20173;-60
2022/08/12 02:14:38;;;;;;;2.97;2.47;;;18.60;56.80;;;;;;5052709;28;20205;-60
2022/08/12 02:17:13;;;;;;;3.60;2.10;;;18.60;57.10;;;;;;5051470;28;20275;-60
2022/08/12 02:19:45;;;;;;;2.35;2.00;;;18.60;57.20;;;;;;5053011;28;21066;-60
2022/08/12 02:22:30;;;;;;;2.28;2.08;;;18.60;57.50;;;;;;5053301;28;20241;-60
2022/08/12 02:25:17;;;;;;;2.50;1.90;;;18.60;57.40;;;;;;5052357;28;20181;-60
2022/08/12 02:27:48;;;;;;;2.65;2.17;;;18.50;57.50;;;;;;5052811;28;20231;-61
2022/08/12 02:30:20;;;;;;;2.20;2.00;;;18.50;57.60;;;;;;5052925;28;20239;-60
2022/08/12 02:32:48;;;;;;;2.38;2.13;;;18.50;57.70;;;;;;5052849;28;20200;-60
2022/08/12 02:35:19;;;;;;;3.85;2.00;;;18.50;57.80;;;;;;5052743;28;20653;-60
2022/08/12 02:37:48;;;;;;;8.40;2.00;;;18.40;57.90;;;;;;5051107;28;20671;-60
2022/08/12 02:40:16;;;;;;;4.13;2.00;;;18.40;58.10;;;;;;5052599;28;20256;-60
2022/08/12 02:43:03;;;;;;;2.83;2.10;;;18.40;57.90;;;;;;5052562;28;20225;-60
2022/08/12 02:45:37;;;;;;;1.60;1.50;;;18.40;57.80;;;;;;5052720;28;20220;-60
2022/08/12 02:48:06;;;;;;;1.73;1.63;;;18.30;57.90;;;;;;5051842;28;20189;-60
2022/08/12 02:50:38;;;;;;;2.47;1.85;;;18.30;58.00;;;;;;5052203;28;20580;-60
2022/08/12 02:53:04;;;;;;;2.45;1.90;;;18.20;57.80;;;;;;5052648;28;20189;-59
2022/08/12 02:55:34;;;;;;;2.10;1.90;;;18.20;57.80;;;;;;5052021;28;20173;-60
2022/08/12 02:58:08;;;;;;;2.05;1.85;;;18.20;57.80;;;;;;5052311;28;20189;-60
2022/08/12 03:00:38;;;;;;;2.53;1.90;;;18.20;57.80;;;;;;5051314;28;20260;-60
2022/08/12 03:03:07;;;;;;;3.20;2.17;;;18.20;57.90;;;;;;5048506;28;20193;-60
2022/08/12 03:05:44;;;;;;;3.25;2.03;;;18.20;58.10;;;;;;5044018;28;20181;-60
2022/08/12 03:08:14;;;;;;;2.45;2.00;;;18.20;58.40;;;;;;5052054;28;20177;-60
2022/08/12 03:10:43;;;;;;;2.38;2.20;;;18.20;58.50;;;;;;5051703;28;20189;-61
2022/08/12 03:13:10;;;;;;;4.25;2.03;;;18.20;58.50;;;;;;5052307;28;20264;-61
2022/08/12 03:15:36;;;;;;;4.15;1.90;;;18.20;58.40;;;;;;5051291;28;20208;-60
2022/08/12 03:18:22;;;;;;;3.97;2.10;;;18.20;58.70;;;;;;5051895;28;20185;-60
2022/08/12 03:20:47;;;;;;;4.28;1.98;;;18.10;58.70;;;;;;5051668;28;20291;-60
2022/08/12 03:23:15;;;;;;;3.90;2.08;;;18.10;58.80;;;;;;5052192;28;20657;-60
2022/08/12 03:25:42;;;;;;;4.47;3.03;;;18.10;59.00;;;;;;5051463;28;20221;-60
2022/08/12 03:28:48;;;;;;;5.22;2.78;;;18.10;59.10;;;;;;5051675;28;20177;-61
2022/08/12 03:31:02;;;;;;;3.75;2.30;;;18.00;59.00;;;;;;5051288;28;20176;-60
2022/08/12 03:33:33;;;;;;;6.32;2.40;;;18.10;59.00;;;;;;5051895;28;20178;-60
2022/08/12 03:36:02;;;;;;;4.57;2.25;;;18.00;58.80;;;;;;5051458;28;20231;-60
2022/08/12 03:38:28;;;;;;;2.25;1.90;;;18.00;58.80;;;;;;5051519;28;20235;-60
2022/08/12 04:00:36;;;;;;;5.20;2.47;;;17.70;61.30;;;;;;5051609;28;20243;-61
2022/08/12 04:03:02;;;;;;;2.00;1.90;;;17.50;61.50;;;;;;5046997;28;20193;-60
2022/08/12 04:05:29;;;;;;;2.53;2.00;;;17.40;61.70;;;;;;5058233;28;20175;-60
2022/08/12 04:07:58;;;;;;;4.55;2.58;;;17.30;62.30;;;;;;5059782;28;20180;-60
2022/08/12 04:13:15;;;;;;;3.15;2.00;;;17.20;62.80;;;;;;5051653;28;20227;-60
2022/08/12 04:13:20;;;;;;;2.85;2.25;;;17.10;63.10;;;;;;5050833;28;20331;-60
2022/08/12 04:15:46;;;;;;;2.45;2.25;;;17.00;63.30;;;;;;5049831;28;20636;-58
2022/08/12 04:18:14;;;;;;;2.08;1.90;;;16.90;63.40;;;;;;5050538;28;20194;-58
2022/08/12 04:20:46;;;;;;;2.45;2.13;;;16.80;63.60;;;;;;5051222;28;20173;-62
2022/08/12 04:23:15;;;;;;;3.75;2.70;;;16.70;64.30;;;;;;5050642;28;20239;-61
2022/08/12 04:25:41;;;;;;;3.95;3.05;;;16.60;64.70;;;;;;5050750;28;20169;-57
2022/08/12 04:28:08;;;;;;;3.97;2.10;;;16.60;64.90;;;;;;5049778;28;20177;-62
2022/08/12 04:30:35;;;;;;;2.35;2.15;;;16.50;64.90;;;;;;5050647;28;20187;-63
2022/08/12 04:33:01;;;;;;;2.45;2.25;;;16.50;64.90;;;;;;5032340;28;20174;-58
2022/08/12 04:35:28;;;;;;;3.03;2.08;;;16.50;65.30;;;;;;5050105;28;20185;-61
2022/08/12 04:37:56;;;;;;;3.53;2.10;;;16.50;65.20;;;;;;5050766;28;20185;-61
2022/08/12 04:40:24;;;;;;;5.13;2.03;;;16.50;65.30;;;;;;5048630;28;20174;-60
2022/08/12 04:42:50;;;;;;;2.78;2.20;;;16.50;65.40;;;;;;5050926;28;20300;-61
2022/08/12 04:45:19;;;;;;;3.90;2.35;;;16.60;65.50;;;;;;5050960;28;20221;-59
2022/08/12 04:47:45;;;;;;;3.08;2.10;;;16.60;65.50;;;;;;5050735;28;20200;-60
2022/08/12 04:50:16;;;;;;;2.30;2.10;;;16.60;65.50;;;;;;5046290;28;20253;-60
2022/08/12 04:52:42;;;;;;;2.92;2.20;;;16.70;65.60;;;;;;5049589;28;20284;-61
2022/08/12 04:55:11;;;;;;;4.30;2.72;;;16.70;65.60;;;;;;5049569;28;20669;-60
2022/08/12 04:57:38;;;;;;;3.13;2.20;;;16.70;65.60;;;;;;5054903;28;20173;-60
2022/08/12 05:00:12;;;;;;;3.72;2.00;;;16.70;65.60;;;;;;5070537;28;20224;-60
2022/08/12 05:02:38;;;;;;;5.93;2.20;;;16.80;65.70;;;;;;5057156;28;20698;-61
2022/08/12 05:05:04;;;;;;;4.85;2.63;;;16.90;65.60;;;;;;5050644;28;20182;-60
2022/08/12 05:07:32;;;;;;;4.80;2.38;;;17.10;65.40;;;;;;5050669;28;20204;-60
2022/08/12 05:09:57;;;;;;;2.55;2.15;;;17.40;64.70;;;;;;5050595;28;20569;-60
2022/08/12 05:12:25;;;;;;;5.80;2.03;;;17.60;63.80;;;;;;5050231;28;20177;-60
2022/08/12 05:14:50;;;;;;;9.25;2.13;;;18.10;63.30;;;;;;5050662;28;20201;-59
2022/08/12 05:17:16;;;;;;;6.40;2.13;;;18.40;62.10;;;;;;5050554;28;20544;-60
2022/08/12 05:19:42;;;;;;;5.40;2.10;;;18.90;61.00;;;;;;5050191;28;20173;-59
2022/08/12 05:22:08;;;;;;;4.45;2.58;;;19.40;60.00;;;;;;5050753;28;20734;-60
2022/08/12 05:24:33;;;;;;;5.93;2.33;;;19.80;59.30;;;;;;5049698;28;20189;-60
2022/08/12 05:26:59;;;;;;;9.75;2.50;;;20.20;58.50;;;;;;5054167;28;20185;-60
2022/08/12 05:29:28;;;;;;;11.15;2.63;;;20.50;57.90;;;;;;5054144;28;20166;-60
2022/08/12 05:31:55;;;;;;;6.55;2.30;;;20.90;57.50;;;;;;5053442;28;20223;-61
2022/08/12 05:34:20;;;;;;;5.70;2.20;;;21.30;57.00;;;;;;5053889;28;20260;-60
2022/08/12 05:36:46;;;;;;;4.53;2.25;;;21.60;56.20;;;;;;5053374;28;20261;-60
2022/08/12 05:39:11;;;;;;;4.63;2.35;;;22.00;55.40;;;;;;5053522;28;20177;-60
2022/08/12 05:41:38;;;;;;;2.33;2.10;;;22.40;55.10;;;;;;5053734;28;20225;-60
2022/08/12 05:44:06;;;;;;;3.53;2.17;;;22.70;54.10;;;;;;5054018;28;20566;-61
2022/08/12 05:46:34;;;;;;;2.30;2.10;;;23.10;53.50;;;;;;5053839;28;20185;-60
2022/08/12 05:49:01;;;;;;;4.95;1.90;;;23.40;53.20;;;;;;5052829;28;20532;-60
2022/08/12 05:51:29;;;;;;;3.95;2.30;;;23.70;52.60;;;;;;5053123;28;20600;-61
2022/08/12 05:53:56;;;;;;;3.88;1.92;;;24.20;51.80;;;;;;5053625;28;20586;-61
2022/08/12 05:56:27;;;;;;;2.85;2.13;;;24.70;51.20;;;;;;5053929;28;20174;-61
2022/08/12 05:58:55;;;;;;;3.25;2.20;;;24.90;50.30;;;;;;5053613;28;20185;-61
2022/08/12 06:01:22;;;;;;;3.17;2.00;;;25.20;50.00;;;;;;5053664;28;20241;-60
2022/08/12 06:03:49;;;;;;;3.75;2.20;;;25.50;49.60;;;;;;5053474;28;20189;-60
2022/08/12 06:06:18;;;;;;;4.68;1.85;;;26.00;48.90;;;;;;5053498;28;20276;-60
2022/08/12 06:08:52;;;;;;;2.20;1.70;;;26.40;48.20;;;;;;5053312;28;20197;-60
2022/08/12 06:11:19;;;;;;;2.00;1.88;;;26.90;47.30;;;;;;5053721;28;20636;-60
2022/08/12 06:13:45;;;;;;;3.47;1.95;;;27.30;46.50;;;;;;5053069;28;20185;-61
2022/08/12 06:16:13;;;;;;;1.95;1.70;;;27.50;45.80;;;;;;5053916;28;20193;-61
2022/08/12 06:18:40;;;;;;;2.97;2.15;;;27.50;45.60;;;;;;5053562;28;20598;-61
2022/08/12 06:21:11;;;;;;;2.25;1.95;;;27.60;45.50;;;;;;5056741;28;20205;-61
2022/08/12 06:23:37;;;;;;;3.03;1.70;;;27.60;45.30;;;;;;5053493;28;20169;-61
2022/08/12 06:26:04;;;;;;;3.92;1.70;;;27.70;45.00;;;;;;5053352;28;20188;-60
2022/08/12 06:28:29;;;;;;;2.30;2.10;;;27.90;45.00;;;;;;5053291;28;20204;-60
2022/08/12 06:30:56;;;;;;;4.80;1.80;;;28.20;44.80;;;;;;5053165;28;20636;-61
2022/08/12 06:33:22;;;;;;;2.42;1.77;;;28.50;44.30;;;;;;5052863;28;20181;-61
2022/08/12 06:35:48;;;;;;;3.72;2.00;;;29.00;43.70;;;;;;5052996;28;20239;-61
2022/08/12 06:38:22;;;;;;;4.70;1.80;;;29.40;43.10;;;;;;5052846;28;20668;-62
2022/08/12 06:43:36;;;;;;;4.65;1.92;;;30.00;41.90;;;;;;5033446;28;20241;-62
2022/08/12 06:46:03;;;;;;;2.10;1.90;;;30.10;41.90;;;;;;5033060;28;20629;-62
2022/08/12 06:48:30;;;;;;;3.30;1.75;;;29.80;41.60;;;;;;5052099;28;20299;-61
2022/08/12 06:50:56;;;;;;;2.33;1.67;;;29.50;41.90;;;;;;5052934;28;20185;-61
2022/08/12 06:53:24;;;;;;;1.85;1.75;;;29.50;42.50;;;;;;5052525;28;20512;-61
2022/08/12 06:55:53;;;;;;;2.65;1.73;;;29.80;42.40;;;;;;5052549;28;20207;-61
2022/08/12 06:58:20;;;;;;;2.08;1.90;;;29.90;41.90;;;;;;5059206;28;20169;-61
2022/08/12 07:00:49;;;;;;;2.50;1.90;;;29.80;41.70;;;;;;5072188;28;20595;-61
2022/08/12 07:03:26;;;;;;;4.03;3.03;;;30.10;42.10;;;;;;5053589;28;20200;-62
2022/08/12 07:05:53;;;;;;;3.00;1.90;;;30.30;41.70;;;;;;5052686;28;20196;-61
2022/08/12 07:08:18;;;;;;;2.20;2.00;;;30.60;41.10;;;;;;5052776;28;20181;-61
2022/08/12 07:10:58;;;;;;;2.90;1.80;;;30.90;41.40;;;;;;5052555;28;20582;-61
2022/08/12 07:13:34;;;;;;;5.28;2.00;;;31.00;40.30;;;;;;5057298;28;20180;-62
2022/08/12 07:16:01;;;;;;;2.10;1.80;;;31.10;40.20;;;;;;5052503;28;20644;-61
2022/08/12 07:18:33;;;;;;;2.90;1.80;;;31.40;40.40;;;;;;5052176;28;20191;-61
2022/08/12 07:21:01;;;;;;;2.08;1.75;;;31.80;39.70;;;;;;5052384;28;20323;-62
2022/08/12 07:23:27;;;;;;;2.42;1.85;;;32.20;39.80;;;;;;5051982;28;20667;-62
2022/08/12 07:25:53;;;;;;;3.85;2.00;;;32.70;39.30;;;;;;5052026;28;20181;-62
2022/08/12 07:28:26;;;;;;;2.03;1.70;;;33.20;39.20;;;;;;5052105;28;20538;-62
2022/08/12 07:30:54;;;;;;;3.95;1.85;;;33.60;37.80;;;;;;5052003;28;20181;-62
2022/08/12 07:33:22;;;;;;;2.95;1.67;;;33.70;37.50;;;;;;5052183;28;20299;-62
2022/08/12 07:35:52;;;;;;;2.13;1.90;;;33.70;37.40;;;;;;5051633;28;20728;-62
2022/08/12 07:38:26;;;;;;;1.75;1.65;;;33.90;37.20;;;;;;5051986;28;20181;-62
2022/08/12 07:41:22;;;;;;;2.33;1.63;;;34.20;37.50;;;;;;5051745;28;20185;-62
2022/08/12 07:43:52;;;;;;;6.93;2.05;;;34.50;36.60;;;;;;5049742;28;20199;-62
2022/08/12 07:46:20;;;;;;;4.75;1.73;;;34.80;37.10;;;;;;5052117;28;20195;-62
2022/08/12 07:48:56;;;;;;;7.38;2.08;;;35.30;36.60;;;;;;5051147;28;20191;-62
2022/08/12 07:51:23;;;;;;;2.58;1.80;;;35.60;35.60;;;;;;5052015;28;20179;-62
2022/08/12 07:53:49;;;;;;;3.28;1.75;;;35.80;34.80;;;;;;5050452;28;20268;-61
2022/08/12 07:56:17;;;;;;;1.80;1.70;;;35.80;35.20;;;;;;5051610;28;20208;-61
2022/08/12 07:58:42;;;;;;;4.15;1.67;;;35.50;35.00;;;;;;5050996;28;20240;-61
2022/08/12 08:01:10;;;;;;;4.18;1.90;;;35.50;35.00;;;;;;5050932;28;20232;-61
2022/08/12 08:06:30;;;;;;;3.13;1.70;;;34.90;36.00;;;;;;5051510;28;20207;-61
2022/08/12 08:08:56;;;;;;;4.70;1.70;;;35.20;35.60;;;;;;5051058;28;20180;-61
2022/08/12 08:14:08;;;;;;;3.03;1.75;;;35.50;36.10;;;;;;5050176;28;20239;-62
2022/08/12 08:16:36;;;;;;;6.75;1.80;;;36.00;34.80;;;;;;5050176;28;20189;-62
2022/08/12 08:19:05;;;;;;;2.22;1.90;;;36.10;34.40;;;;;;5050731;28;20181;-63
2022/08/12 08:21:35;;;;;;;4.30;2.17;;;36.10;34.90;;;;;;5051237;28;20200;-62
2022/08/12 08:24:13;;;;;;;4.75;1.85;;;36.30;34.50;;;;;;5050729;28;20289;-62
2022/08/12 08:26:44;;;;;;;3.95;1.95;;;36.20;33.90;;;;;;5051398;28;20284;-62
2022/08/12 08:29:11;;;;;;;4.05;1.70;;;36.00;34.10;;;;;;5051339;28;20180;-62
2022/08/12 08:31:40;;;;;;;3.60;2.00;;;35.70;34.50;;;;;;5051254;28;20240;-62
2022/08/12 08:34:06;;;;;;;2.22;1.60;;;35.70;34.80;;;;;;5051075;28;20239;-62
2022/08/12 08:36:31;;;;;;;1.80;1.65;;;35.60;34.80;;;;;;5051153;28;20197;-62
2022/08/12 08:38:57;;;;;;;2.03;1.63;;;35.70;35.60;;;;;;5051159;28;20226;-62
2022/08/12 08:44:06;;;;;;;3.47;1.85;;;36.10;34.40;;;;;;5051201;28;20179;-62
2022/08/12 08:46:36;;;;;;;3.50;2.50;;;36.10;34.30;;;;;;5051483;28;20177;-62
2022/08/12 08:49:02;;;;;;;2.15;2.00;;;36.10;34.90;;;;;;5051265;28;20165;-62
2022/08/12 08:51:28;;;;;;;6.32;1.80;;;36.20;33.90;;;;;;5051288;28;20608;-62
2022/08/12 08:53:53;;;;;;;2.17;1.80;;;36.10;35.10;;;;;;5051257;28;20651;-62
2022/08/12 08:56:19;;;;;;;2.80;1.63;;;36.10;34.30;;;;;;5051235;28;20173;-62
2022/08/12 08:58:45;;;;;;;4.70;1.90;;;36.40;35.00;;;;;;5051073;28;20545;-62
2022/08/12 09:01:16;;;;;;;2.47;1.80;;;36.40;33.70;;;;;;5054113;28;20264;-62
2022/08/12 09:03:42;;;;;;;1.90;1.70;;;36.40;34.40;;;;;;5046406;28;20185;-62
2022/08/12 09:06:07;;;;;;;2.88;1.85;;;36.50;33.80;;;;;;5034499;28;20536;-62
2022/08/12 09:08:32;;;;;;;1.70;1.60;;;36.50;34.50;;;;;;5035059;28;20190;-62
2022/08/12 09:13:26;;;;;;;2.67;1.67;;;36.50;33.50;;;;;;5034852;28;20216;-62
2022/08/12 09:13:43;;;;;;;2.38;2.00;;;36.20;34.20;;;;;;5034704;28;20189;-62
2022/08/12 09:16:09;;;;;;;2.80;1.80;;;35.90;34.80;;;;;;5034801;28;20629;-62
2022/08/12 09:18:34;;;;;;;2.65;1.50;;;36.00;36.30;;;;;;5034844;28;20178;-62
2022/08/12 09:21:00;;;;;;;2.67;1.58;;;36.20;34.00;;;;;;5034694;28;20290;-62
2022/08/12 09:23:26;;;;;;;2.92;1.45;;;36.10;34.00;;;;;;5034740;28;20182;-62
2022/08/12 09:25:51;;;;;;;3.88;1.67;;;35.90;34.10;;;;;;5034666;28;20181;-62
2022/08/12 09:28:19;;;;;;;3.05;1.70;;;35.80;33.80;;;;;;5034668;28;20182;-62
2022/08/12 09:30:47;;;;;;;1.83;1.50;;;35.50;32.60;;;;;;5034401;28;20711;-63
2022/08/12 09:33:13;;;;;;;1.90;1.70;;;35.10;32.90;;;;;;5034431;28;20181;-62
2022/08/12 09:35:43;;;;;;;3.22;1.60;;;34.60;33.30;;;;;;5034600;28;20223;-63
2022/08/12 09:38:15;;;;;;;3.40;1.50;;;34.10;33.90;;;;;;5046886;28;20180;-62
2022/08/12 09:40:41;;;;;;;1.70;1.40;;;33.80;34.20;;;;;;5054431;28;20181;-63
2022/08/12 09:45:50;;;;;;;1.63;1.52;;;33.80;35.00;;;;;;5054474;28;20697;-62
2022/08/12 09:48:18;;;;;;;2.55;1.40;;;33.90;34.40;;;;;;5054144;28;20177;-63
2022/08/12 09:50:45;;;;;;;2.97;1.50;;;34.30;34.10;;;;;;5054040;28;20171;-63
2022/08/12 09:53:15;;;;;;;2.85;1.40;;;34.50;33.40;;;;;;5054019;28;20177;-63
2022/08/12 09:55:47;;;;;;;1.80;1.60;;;34.10;33.20;;;;;;5054124;28;20691;-63
2022/08/12 09:58:16;;;;;;;1.60;1.42;;;33.80;33.60;;;;;;5053898;28;20215;-62
2022/08/12 10:00:43;;;;;;;3.20;1.65;;;33.40;34.10;;;;;;5053806;28;20231;-62
2022/08/12 10:03:10;;;;;;;4.35;1.50;;;33.10;34.50;;;;;;5049855;28;20248;-62
2022/08/12 10:05:42;;;;;;;2.08;1.88;;;32.70;34.60;;;;;;5034010;28;20201;-63
2022/08/12 10:08:09;;;;;;;2.55;1.60;;;32.30;35.30;;;;;;5033757;28;20205;-63
2022/08/12 10:13:42;;;;;;;1.58;1.48;;;32.00;35.90;;;;;;5034214;28;20193;-63
2022/08/12 10:16:19;;;;;;;4.22;1.70;;;32.20;35.40;;;;;;5033521;28;20182;-60
2022/08/12 10:18:53;;;;;;;1.92;1.40;;;32.50;35.80;;;;;;5033552;28;20606;-60
2022/08/12 10:21:20;;;;;;;1.50;1.40;;;32.60;35.30;;;;;;5040434;28;20213;-60
2022/08/12 10:23:47;;;;;;;4.70;1.60;;;32.90;35.60;;;;;;5053072;28;20285;-61
2022/08/12 10:31:50;;;;;;;1.50;1.33;;;33.20;35.00;;;;;;5053653;28;20191;-62
2022/08/12 10:34:17;;;;;;;5.05;1.73;;;33.10;34.90;;;;;;5052922;28;20186;-61
2022/08/12 10:36:43;;;;;;;2.47;1.60;;;33.10;35.20;;;;;;5053195;28;20668;-59
2022/08/12 10:39:14;;;;;;;1.30;1.23;;;33.00;34.90;;;;;;5052821;28;20649;-60
2022/08/12 10:44:24;;;;;;;2.35;1.50;;;33.00;34.70;;;;;;5052963;28;20183;-60
2022/08/12 10:46:54;;;;;;;2.00;1.70;;;33.10;35.00;;;;;;5053152;28;20173;-61
2022/08/12 10:49:27;;;;;;;1.77;1.67;;;33.00;35.20;;;;;;5052952;28;20173;-60
2022/08/12 10:51:56;;;;;;;1.27;1.15;;;32.90;34.80;;;;;;5053101;28;20249;-61
2022/08/12 10:54:24;;;;;;;3.80;1.33;;;32.90;34.70;;;;;;5052669;28;20170;-61
2022/08/12 10:56:50;;;;;;;3.97;1.60;;;32.70;34.60;;;;;;5052910;28;20259;-61
2022/08/12 10:59:16;;;;;;;5.63;1.40;;;32.60;35.00;;;;;;5047125;28;20256;-61
2022/08/12 11:01:42;;;;;;;2.50;1.50;;;32.70;35.00;;;;;;5033491;28;20249;-61
2022/08/12 11:04:12;;;;;;;1.92;1.40;;;32.80;34.70;;;;;;5051566;28;20685;-61
2022/08/12 11:06:47;;;;;;;1.60;1.48;;;32.90;34.80;;;;;;5062836;28;20191;-61
2022/08/12 11:09:17;;;;;;;1.98;1.50;;;32.60;34.60;;;;;;5053278;28;20185;-61
2022/08/12 11:11:47;;;;;;;2.28;1.40;;;32.30;34.80;;;;;;5058742;28;20181;-61
2022/08/12 11:14:27;;;;;;;1.50;1.40;;;32.30;35.00;;;;;;5063495;28;20173;-61
2022/08/12 11:16:57;;;;;;;1.48;1.35;;;32.30;35.30;;;;;;5052627;28;20189;-60
2022/08/12 11:19:27;;;;;;;1.35;1.25;;;32.30;34.40;;;;;;5052540;28;20178;-60
2022/08/12 11:21:54;;;;;;;3.28;1.67;;;32.40;34.60;;;;;;5051626;28;20216;-60
2022/08/12 11:24:20;;;;;;;3.90;1.70;;;32.30;34.40;;;;;;5051528;28;20175;-60
2022/08/12 11:26:45;;;;;;;3.60;1.58;;;32.50;34.60;;;;;;5052377;28;20181;-61
2022/08/12 11:29:11;;;;;;;2.25;1.63;;;32.70;34.50;;;;;;5051651;28;20169;-62
2022/08/12 11:31:36;;;;;;;1.48;1.38;;;33.00;34.90;;;;;;5052118;28;20184;-62
2022/08/12 11:34:02;;;;;;;1.40;1.30;;;33.10;33.20;;;;;;5051970;28;20185;-62
2022/08/12 11:36:28;;;;;;;4.13;1.50;;;33.10;33.30;;;;;;5051608;28;20181;-62
2022/08/12 11:38:54;;;;;;;1.63;1.38;;;32.80;32.90;;;;;;5051838;28;20181;-62
2022/08/12 11:41:20;;;;;;;2.35;1.58;;;32.80;33.80;;;;;;5052164;28;20209;-62
2022/08/12 11:43:45;;;;;;;2.90;1.40;;;32.90;33.50;;;;;;5051759;28;20178;-62
2022/08/12 11:46:11;;;;;;;2.53;1.40;;;32.90;33.70;;;;;;5051956;28;20372;-62
2022/08/12 11:48:38;;;;;;;1.75;1.40;;;32.90;33.70;;;;;;5052131;28;20533;-62
2022/08/12 11:51:06;;;;;;;2.22;1.38;;;32.90;34.00;;;;;;5051458;28;20174;-62
2022/08/12 11:53:31;;;;;;;3.25;1.40;;;32.90;33.50;;;;;;5055150;28;20272;-62
2022/08/12 11:55:57;;;;;;;1.40;1.30;;;32.80;33.40;;;;;;5051924;28;20252;-61
2022/08/12 11:58:22;;;;;;;4.90;1.25;;;32.80;33.20;;;;;;5051722;28;20173;-62
2022/08/12 12:00:48;;;;;;;1.60;1.50;;;32.80;33.10;;;;;;5051189;28;20645;-61
2022/08/12 12:03:13;;;;;;;3.13;1.73;;;32.70;33.10;;;;;;5046536;28;20280;-61
2022/08/12 12:05:39;;;;;;;2.67;1.35;;;32.60;33.60;;;;;;5050502;28;20239;-62
2022/08/12 12:08:04;;;;;;;2.75;1.50;;;32.50;33.70;;;;;;5051560;28;20215;-61
2022/08/12 12:10:30;;;;;;;1.50;1.40;;;32.50;34.30;;;;;;5050153;28;20211;-62
2022/08/12 12:12:55;;;;;;;3.10;1.20;;;32.80;34.10;;;;;;5051274;28;20268;-61
2022/08/12 12:15:21;;;;;;;3.25;1.50;;;32.80;33.10;;;;;;5051189;28;20225;-61
2022/08/12 12:17:48;;;;;;;1.98;1.40;;;32.70;33.10;;;;;;5051798;28;20544;-60
2022/08/12 12:20:14;;;;;;;1.00;1.00;;;32.70;32.70;;;;;;5051223;28;20264;-62
2022/08/12 12:22:40;;;;;;;1.60;1.50;;;32.60;33.00;;;;;;5050525;28;20303;-62
2022/08/12 12:25:07;;;;;;;1.33;1.08;;;32.50;33.30;;;;;;5051520;28;20181;-62
2022/08/12 12:27:47;;;;;;;1.67;1.25;;;32.50;32.90;;;;;;5050083;28;20547;-62
2022/08/12 12:30:13;;;;;;;4.25;1.10;;;32.50;33.00;;;;;;5031370;28;20220;-62
2022/08/12 12:32:39;;;;;;;1.50;1.40;;;32.50;33.50;;;;;;5036345;28;20192;-62
2022/08/12 12:35:05;;;;;;;1.20;1.10;;;32.60;32.80;;;;;;5054599;28;20185;-61
2022/08/12 12:37:30;;;;;;;3.20;1.00;;;32.70;33.00;;;;;;5055179;28;20272;-62
2022/08/12 12:39:59;;;;;;;4.70;3.25;;;32.90;33.40;;;;;;5054059;28;20256;-62
2022/08/12 12:42:24;;;;;;;2.45;1.33;;;33.10;33.00;;;;;;5054978;28;20708;-62
2022/08/12 12:44:50;;;;;;;1.58;1.30;;;33.20;32.60;;;;;;5055435;28;20182;-62
2022/08/12 12:47:16;;;;;;;3.85;1.33;;;33.10;32.40;;;;;;5055262;28;20177;-62
2022/08/12 12:49:42;;;;;;;1.40;1.30;;;33.00;32.50;;;;;;5054804;28;20173;-62
2022/08/12 12:52:07;;;;;;;1.20;1.20;;;32.80;32.20;;;;;;5054946;28;20194;-62
2022/08/12 12:54:33;;;;;;;1.55;1.45;;;32.70;32.40;;;;;;5054972;28;20197;-62
2022/08/12 12:56:59;;;;;;;1.33;1.20;;;32.50;32.60;;;;;;5054709;28;20290;-62
2022/08/12 12:59:27;;;;;;;1.17;1.17;;;32.50;33.20;;;;;;5054336;28;20185;-62
2022/08/12 13:01:53;;;;;;;2.55;1.13;;;32.30;33.00;;;;;;5054655;28;20220;-62
2022/08/12 13:04:18;;;;;;;3.72;1.38;;;32.00;33.10;;;;;;5053482;28;20566;-62
2022/08/12 13:06:50;;;;;;;2.05;1.30;;;31.80;33.40;;;;;;5055019;28;20181;-62
2022/08/12 13:09:16;;;;;;;1.83;1.20;;;31.40;33.70;;;;;;5054015;28;20185;-62
2022/08/12 13:11:42;;;;;;;2.50;1.20;;;31.30;34.40;;;;;;5054758;28;20177;-62
2022/08/12 13:14:09;;;;;;;1.30;1.20;;;31.30;33.80;;;;;;5054228;28;20254;-62
2022/08/12 13:16:35;;;;;;;1.33;1.02;;;31.50;33.90;;;;;;5054415;28;20285;-62
2022/08/12 13:19:00;;;;;;;1.55;1.08;;;31.60;33.90;;;;;;5053842;28;20264;-62
2022/08/12 13:21:29;;;;;;;4.18;1.50;;;31.80;33.60;;;;;;5055030;28;20216;-61
2022/08/12 13:23:55;;;;;;;1.40;1.30;;;31.90;33.00;;;;;;5054242;28;20268;-62
2022/08/12 13:26:21;;;;;;;1.33;1.20;;;32.00;32.80;;;;;;5053023;28;20268;-61
2022/08/12 13:28:52;;;;;;;3.17;1.27;;;32.10;33.30;;;;;;5054451;28;20200;-62
2022/08/12 13:31:20;;;;;;;2.28;1.23;;;32.00;33.40;;;;;;5054249;28;20182;-62
2022/08/12 13:33:50;;;;;;;1.45;1.10;;;31.90;33.20;;;;;;5054149;28;20182;-62
2022/08/12 13:36:17;;;;;;;2.53;1.30;;;31.90;33.20;;;;;;5053469;28;20197;-62
2022/08/12 13:38:45;;;;;;;1.20;1.20;;;32.00;33.70;;;;;;5054268;28;20220;-61
2022/08/12 13:41:31;;;;;;;1.80;0.95;;;32.00;33.60;;;;;;5053838;28;20212;-63
2022/08/12 13:44:02;;;;;;;1.95;1.23;;;32.10;33.60;;;;;;5054042;28;20273;-62
2022/08/12 13:46:28;;;;;;;1.30;1.20;;;32.20;33.00;;;;;;5052649;28;20177;-61
2022/08/12 13:48:55;;;;;;;1.80;1.30;;;32.20;33.20;;;;;;5053514;28;20192;-62
2022/08/12 13:51:21;;;;;;;7.22;1.75;;;32.20;33.30;;;;;;5053644;28;20185;-62
2022/08/12 13:53:46;;;;;;;2.45;1.20;;;32.00;33.30;;;;;;5054070;28;20540;-62
2022/08/12 13:56:13;;;;;;;1.50;1.25;;;31.80;33.20;;;;;;5053689;28;20264;-61
2022/08/12 13:58:43;;;;;;;3.38;1.50;;;31.50;33.00;;;;;;5053817;28;20636;-61
2022/08/12 14:01:08;;;;;;;1.60;1.08;;;31.20;32.90;;;;;;5053509;28;20367;-61
2022/08/12 14:03:36;;;;;;;1.98;1.30;;;30.90;34.00;;;;;;5052222;28;20190;-61
2022/08/12 14:06:03;;;;;;;1.13;1.10;;;30.70;33.40;;;;;;5053367;28;20231;-61
2022/08/12 14:08:29;;;;;;;1.98;1.75;;;30.50;33.80;;;;;;5053339;28;20185;-61
2022/08/12 14:10:55;;;;;;;1.20;1.10;;;30.40;34.10;;;;;;5053542;28;20570;-61
2022/08/12 14:13:25;;;;;;;1.30;1.20;;;30.30;34.30;;;;;;5053995;28;20216;-61
2022/08/12 14:15:52;;;;;;;1.33;1.17;;;30.50;34.50;;;;;;5053921;28;20564;-61
2022/08/12 14:18:24;;;;;;;0.90;0.90;;;30.70;34.40;;;;;;5053383;28;20177;-61
2022/08/12 14:20:59;;;;;;;1.40;1.15;;;30.90;34.10;;;;;;5053684;28;20265;-61
2022/08/12 14:23:31;;;;;;;1.38;1.13;;;31.00;34.20;;;;;;5052430;28;20197;-61
2022/08/12 14:25:59;;;;;;;1.58;1.48;;;31.10;34.10;;;;;;5052289;28;20272;-61
2022/08/12 14:28:33;;;;;;;1.50;1.40;;;31.10;33.60;;;;;;5051582;28;20212;-61
2022/08/12 14:31:01;;;;;;;4.97;1.50;;;31.00;33.60;;;;;;5048243;28;20165;-61
2022/08/12 14:33:35;;;;;;;3.35;0.98;;;31.00;34.20;;;;;;5063305;28;20323;-61
2022/08/12 14:36:03;;;;;;;1.30;1.20;;;30.90;33.90;;;;;;5052757;28;20162;-61
2022/08/12 14:38:30;;;;;;;4.10;1.15;;;30.90;34.30;;;;;;5052504;28;20182;-61
2022/08/12 14:41:00;;;;;;;2.42;1.00;;;30.90;33.90;;;;;;5051952;28;20525;-61